sensor_id;sensor_type;location;lat;lon;timestamp;P1;durP1;ratioP1;P2;durP2;ratioP2
77733;SDS011;66902;41.720;44.796;2023-08-17T00:01:37;23.10;;;6.00;;
77733;SDS011;66902;41.720;44.796;2023-08-17T00:04:08;24.00;;;5.00;;
77733;SDS011;66902;41.720;44.796;2023-08-17T00:06:39;15.50;;;5.00;;
77733;SDS011;66902;41.720;44.796;2023-08-17T00:09:10;19.20;;;5.50;;
77733;SDS011;66902;41.720;44.796;2023-08-17T00:11:40;12.90;;;4.70;;
77733;SDS011;66902;41.720;44.796;2023-08-17T00:14:11;16.50;;;5.70;;
77733;SDS011;66902;41.720;44.796;2023-08-17T00:16:41;33.50;;;7.00;;
77733;SDS011;66902;41.720;44.796;2023-08-17T00:19:12;23.00;;;5.90;;
77733;SDS011;66902;41.720;44.796;2023-08-17T00:21:44;21.60;;;5.80;;
77733;SDS011;66902;41.720;44.796;2023-08-17T00:24:14;19.30;;;6.40;;
77733;SDS011;66902;41.720;44.796;2023-08-17T00:26:46;21.20;;;5.90;;
77733;SDS011;66902;41.720;44.796;2023-08-17T00:29:16;17.60;;;6.40;;
77733;SDS011;66902;41.720;44.796;2023-08-17T00:31:47;15.90;;;5.40;;
77733;SDS011;66902;41.720;44.796;2023-08-17T00:34:18;18.20;;;5.60;;
77733;SDS011;66902;41.720;44.796;2023-08-17T00:36:48;14.30;;;6.00;;
77733;SDS011;66902;41.720;44.796;2023-08-17T00:39:19;21.60;;;6.50;;
77733;SDS011;66902;41.720;44.796;2023-08-17T00:41:49;15.70;;;5.50;;
77733;SDS011;66902;41.720;44.796;2023-08-17T00:44:20;15.00;;;6.30;;
77733;SDS011;66902;41.720;44.796;2023-08-17T00:46:50;10.90;;;5.50;;
77733;SDS011;66902;41.720;44.796;2023-08-17T00:49:21;21.20;;;6.00;;
77733;SDS011;66902;41.720;44.796;2023-08-17T00:51:52;21.60;;;6.70;;
77733;SDS011;66902;41.720;44.796;2023-08-17T00:54:23;10.60;;;6.00;;
77733;SDS011;66902;41.720;44.796;2023-08-17T00:56:54;18.90;;;5.10;;
77733;SDS011;66902;41.720;44.796;2023-08-17T00:59:24;15.60;;;5.70;;
77733;SDS011;66902;41.720;44.796;2023-08-17T01:02:03;11.20;;;5.20;;
77733;SDS011;66902;41.720;44.796;2023-08-17T01:04:34;17.10;;;5.20;;
77733;SDS011;66902;41.720;44.796;2023-08-17T01:07:05;18.50;;;6.40;;
77733;SDS011;66902;41.720;44.796;2023-08-17T01:09:36;11.50;;;4.90;;
77733;SDS011;66902;41.720;44.796;2023-08-17T01:12:07;20.60;;;6.00;;
77733;SDS011;66902;41.720;44.796;2023-08-17T01:14:42;21.00;;;5.40;;
77733;SDS011;66902;41.720;44.796;2023-08-17T01:17:21;11.50;;;6.20;;
77733;SDS011;66902;41.720;44.796;2023-08-17T01:19:54;16.70;;;5.70;;
77733;SDS011;66902;41.720;44.796;2023-08-17T01:22:25;19.00;;;7.00;;
77733;SDS011;66902;41.720;44.796;2023-08-17T01:24:56;29.90;;;7.50;;
77733;SDS011;66902;41.720;44.796;2023-08-17T01:27:39;14.60;;;5.80;;
77733;SDS011;66902;41.720;44.796;2023-08-17T01:30:13;13.80;;;5.80;;
77733;SDS011;66902;41.720;44.796;2023-08-17T01:32:46;20.20;;;6.10;;
77733;SDS011;66902;41.720;44.796;2023-08-17T01:35:20;22.60;;;5.40;;
77733;SDS011;66902;41.720;44.796;2023-08-17T01:40:24;12.80;;;5.10;;
77733;SDS011;66902;41.720;44.796;2023-08-17T01:42:56;10.40;;;4.70;;
77733;SDS011;66902;41.720;44.796;2023-08-17T01:45:26;19.00;;;6.60;;
77733;SDS011;66902;41.720;44.796;2023-08-17T01:47:57;11.50;;;4.60;;
77733;SDS011;66902;41.720;44.796;2023-08-17T01:50:28;18.60;;;6.20;;
77733;SDS011;66902;41.720;44.796;2023-08-17T01:52:59;27.60;;;6.60;;
77733;SDS011;66902;41.720;44.796;2023-08-17T01:55:29;24.20;;;6.60;;
77733;SDS011;66902;41.720;44.796;2023-08-17T01:58:00;25.20;;;7.50;;
77733;SDS011;66902;41.720;44.796;2023-08-17T02:00:31;13.50;;;6.40;;
77733;SDS011;66902;41.720;44.796;2023-08-17T02:03:01;17.80;;;5.70;;
77733;SDS011;66902;41.720;44.796;2023-08-17T02:05:33;30.90;;;6.60;;
77733;SDS011;66902;41.720;44.796;2023-08-17T02:08:03;24.50;;;5.70;;
77733;SDS011;66902;41.720;44.796;2023-08-17T02:10:34;16.60;;;6.20;;
77733;SDS011;66902;41.720;44.796;2023-08-17T02:13:05;13.40;;;4.30;;
77733;SDS011;66902;41.720;44.796;2023-08-17T02:15:45;17.60;;;5.80;;
77733;SDS011;66902;41.720;44.796;2023-08-17T02:18:16;20.80;;;6.30;;
77733;SDS011;66902;41.720;44.796;2023-08-17T02:20:47;16.30;;;6.40;;
77733;SDS011;66902;41.720;44.796;2023-08-17T02:23:17;18.40;;;6.80;;
77733;SDS011;66902;41.720;44.796;2023-08-17T02:25:47;17.60;;;6.00;;
77733;SDS011;66902;41.720;44.796;2023-08-17T02:28:18;13.30;;;6.30;;
77733;SDS011;66902;41.720;44.796;2023-08-17T02:30:48;17.20;;;6.50;;
77733;SDS011;66902;41.720;44.796;2023-08-17T02:33:23;13.60;;;6.20;;
77733;SDS011;66902;41.720;44.796;2023-08-17T02:35:54;21.00;;;5.50;;
77733;SDS011;66902;41.720;44.796;2023-08-17T02:38:25;17.00;;;5.40;;
77733;SDS011;66902;41.720;44.796;2023-08-17T02:40:55;25.50;;;7.80;;
77733;SDS011;66902;41.720;44.796;2023-08-17T02:43:26;24.20;;;8.50;;
77733;SDS011;66902;41.720;44.796;2023-08-17T02:45:56;15.00;;;6.00;;
77733;SDS011;66902;41.720;44.796;2023-08-17T02:48:28;22.80;;;5.70;;
77733;SDS011;66902;41.720;44.796;2023-08-17T02:51:00;20.90;;;7.30;;
77733;SDS011;66902;41.720;44.796;2023-08-17T02:53:31;18.00;;;6.60;;
77733;SDS011;66902;41.720;44.796;2023-08-17T02:56:02;16.60;;;5.60;;
77733;SDS011;66902;41.720;44.796;2023-08-17T02:58:33;30.10;;;7.00;;
77733;SDS011;66902;41.720;44.796;2023-08-17T03:01:04;11.40;;;5.60;;
77733;SDS011;66902;41.720;44.796;2023-08-17T03:03:34;14.20;;;6.80;;
77733;SDS011;66902;41.720;44.796;2023-08-17T03:06:04;20.90;;;6.80;;
77733;SDS011;66902;41.720;44.796;2023-08-17T03:08:35;20.50;;;8.00;;
77733;SDS011;66902;41.720;44.796;2023-08-17T03:11:05;12.30;;;7.60;;
77733;SDS011;66902;41.720;44.796;2023-08-17T03:13:38;19.40;;;7.80;;
77733;SDS011;66902;41.720;44.796;2023-08-17T03:16:08;18.20;;;7.50;;
77733;SDS011;66902;41.720;44.796;2023-08-17T03:18:39;16.30;;;6.20;;
77733;SDS011;66902;41.720;44.796;2023-08-17T03:21:12;22.30;;;8.20;;
77733;SDS011;66902;41.720;44.796;2023-08-17T03:23:43;14.80;;;6.80;;
77733;SDS011;66902;41.720;44.796;2023-08-17T03:26:13;24.90;;;6.80;;
77733;SDS011;66902;41.720;44.796;2023-08-17T03:28:44;19.80;;;5.50;;
77733;SDS011;66902;41.720;44.796;2023-08-17T03:31:14;19.40;;;6.10;;
77733;SDS011;66902;41.720;44.796;2023-08-17T03:33:45;11.50;;;6.70;;
77733;SDS011;66902;41.720;44.796;2023-08-17T03:36:15;21.00;;;8.50;;
77733;SDS011;66902;41.720;44.796;2023-08-17T03:38:45;20.20;;;6.90;;
77733;SDS011;66902;41.720;44.796;2023-08-17T03:41:15;15.40;;;6.30;;
77733;SDS011;66902;41.720;44.796;2023-08-17T03:43:45;15.00;;;6.00;;
77733;SDS011;66902;41.720;44.796;2023-08-17T03:46:16;21.70;;;6.50;;
77733;SDS011;66902;41.720;44.796;2023-08-17T03:48:46;27.60;;;6.50;;
77733;SDS011;66902;41.720;44.796;2023-08-17T03:51:16;16.30;;;4.80;;
77733;SDS011;66902;41.720;44.796;2023-08-17T03:53:47;15.40;;;6.70;;
77733;SDS011;66902;41.720;44.796;2023-08-17T03:56:18;24.00;;;7.80;;
77733;SDS011;66902;41.720;44.796;2023-08-17T03:58:48;20.00;;;6.30;;
77733;SDS011;66902;41.720;44.796;2023-08-17T04:01:18;15.00;;;5.30;;
77733;SDS011;66902;41.720;44.796;2023-08-17T04:03:48;18.50;;;6.20;;
77733;SDS011;66902;41.720;44.796;2023-08-17T04:06:19;24.00;;;5.30;;
77733;SDS011;66902;41.720;44.796;2023-08-17T04:08:49;21.00;;;5.90;;
77733;SDS011;66902;41.720;44.796;2023-08-17T04:11:20;20.20;;;4.80;;
77733;SDS011;66902;41.720;44.796;2023-08-17T04:13:50;14.00;;;5.00;;
77733;SDS011;66902;41.720;44.796;2023-08-17T04:16:21;27.10;;;5.30;;
77733;SDS011;66902;41.720;44.796;2023-08-17T04:18:51;19.50;;;4.70;;
77733;SDS011;66902;41.720;44.796;2023-08-17T04:21:21;20.60;;;4.60;;
77733;SDS011;66902;41.720;44.796;2023-08-17T04:23:52;19.10;;;4.80;;
77733;SDS011;66902;41.720;44.796;2023-08-17T04:26:23;23.50;;;5.30;;
77733;SDS011;66902;41.720;44.796;2023-08-17T04:28:53;18.50;;;4.20;;
77733;SDS011;66902;41.720;44.796;2023-08-17T04:31:23;15.00;;;5.40;;
77733;SDS011;66902;41.720;44.796;2023-08-17T04:33:54;19.10;;;4.60;;
77733;SDS011;66902;41.720;44.796;2023-08-17T04:36:24;13.50;;;3.30;;
77733;SDS011;66902;41.720;44.796;2023-08-17T04:38:55;18.60;;;5.10;;
77733;SDS011;66902;41.720;44.796;2023-08-17T04:41:25;16.40;;;4.10;;
77733;SDS011;66902;41.720;44.796;2023-08-17T04:43:56;20.30;;;4.20;;
77733;SDS011;66902;41.720;44.796;2023-08-17T04:46:26;19.80;;;5.50;;
77733;SDS011;66902;41.720;44.796;2023-08-17T04:48:56;10.50;;;4.40;;
77733;SDS011;66902;41.720;44.796;2023-08-17T04:51:26;23.10;;;5.70;;
77733;SDS011;66902;41.720;44.796;2023-08-17T04:53:57;14.40;;;3.80;;
77733;SDS011;66902;41.720;44.796;2023-08-17T04:56:28;11.40;;;5.10;;
77733;SDS011;66902;41.720;44.796;2023-08-17T04:58:59;13.90;;;4.90;;
77733;SDS011;66902;41.720;44.796;2023-08-17T05:01:29;16.90;;;3.80;;
77733;SDS011;66902;41.720;44.796;2023-08-17T05:04:00;9.10;;;3.30;;
77733;SDS011;66902;41.720;44.796;2023-08-17T05:06:32;9.50;;;2.90;;
77733;SDS011;66902;41.720;44.796;2023-08-17T05:09:04;10.30;;;5.00;;
77733;SDS011;66902;41.720;44.796;2023-08-17T05:11:34;12.70;;;4.30;;
77733;SDS011;66902;41.720;44.796;2023-08-17T05:14:05;18.80;;;5.80;;
77733;SDS011;66902;41.720;44.796;2023-08-17T05:16:36;13.00;;;5.30;;
77733;SDS011;66902;41.720;44.796;2023-08-17T05:19:06;9.40;;;3.50;;
77733;SDS011;66902;41.720;44.796;2023-08-17T05:21:36;12.90;;;2.90;;
77733;SDS011;66902;41.720;44.796;2023-08-17T05:24:07;9.90;;;3.50;;
77733;SDS011;66902;41.720;44.796;2023-08-17T05:26:37;11.20;;;3.80;;
77733;SDS011;66902;41.720;44.796;2023-08-17T05:29:07;9.90;;;3.20;;
77733;SDS011;66902;41.720;44.796;2023-08-17T05:31:38;15.70;;;4.30;;
77733;SDS011;66902;41.720;44.796;2023-08-17T05:34:09;15.40;;;3.70;;
77733;SDS011;66902;41.720;44.796;2023-08-17T05:36:40;11.90;;;4.00;;
77733;SDS011;66902;41.720;44.796;2023-08-17T05:39:10;16.60;;;4.20;;
77733;SDS011;66902;41.720;44.796;2023-08-17T05:41:41;10.20;;;4.40;;
77733;SDS011;66902;41.720;44.796;2023-08-17T05:44:11;10.70;;;4.80;;
77733;SDS011;66902;41.720;44.796;2023-08-17T05:46:43;13.60;;;4.20;;
77733;SDS011;66902;41.720;44.796;2023-08-17T05:49:13;10.70;;;3.90;;
77733;SDS011;66902;41.720;44.796;2023-08-17T05:51:44;14.50;;;3.40;;
77733;SDS011;66902;41.720;44.796;2023-08-17T05:54:14;13.40;;;3.80;;
77733;SDS011;66902;41.720;44.796;2023-08-17T05:56:45;10.40;;;4.20;;
77733;SDS011;66902;41.720;44.796;2023-08-17T05:59:15;12.40;;;4.10;;
77733;SDS011;66902;41.720;44.796;2023-08-17T06:01:46;13.80;;;4.20;;
77733;SDS011;66902;41.720;44.796;2023-08-17T06:04:16;11.70;;;4.10;;
77733;SDS011;66902;41.720;44.796;2023-08-17T06:06:47;16.90;;;4.00;;
77733;SDS011;66902;41.720;44.796;2023-08-17T06:09:17;18.00;;;5.00;;
77733;SDS011;66902;41.720;44.796;2023-08-17T06:11:48;8.90;;;4.40;;
77733;SDS011;66902;41.720;44.796;2023-08-17T06:14:18;15.30;;;4.50;;
77733;SDS011;66902;41.720;44.796;2023-08-17T06:16:50;9.10;;;4.00;;
77733;SDS011;66902;41.720;44.796;2023-08-17T06:19:21;12.70;;;4.20;;
77733;SDS011;66902;41.720;44.796;2023-08-17T06:21:51;16.50;;;5.00;;
77733;SDS011;66902;41.720;44.796;2023-08-17T06:24:21;10.30;;;3.80;;
77733;SDS011;66902;41.720;44.796;2023-08-17T06:26:52;9.90;;;4.50;;
77733;SDS011;66902;41.720;44.796;2023-08-17T06:29:22;10.10;;;3.50;;
77733;SDS011;66902;41.720;44.796;2023-08-17T06:31:53;13.40;;;4.60;;
77733;SDS011;66902;41.720;44.796;2023-08-17T06:34:24;9.30;;;4.10;;
77733;SDS011;66902;41.720;44.796;2023-08-17T06:36:57;14.40;;;5.20;;
77733;SDS011;66902;41.720;44.796;2023-08-17T06:39:29;9.90;;;4.50;;
77733;SDS011;66902;41.720;44.796;2023-08-17T06:41:59;17.00;;;4.60;;
77733;SDS011;66902;41.720;44.796;2023-08-17T06:44:29;11.70;;;3.90;;
77733;SDS011;66902;41.720;44.796;2023-08-17T06:47:00;10.60;;;3.60;;
77733;SDS011;66902;41.720;44.796;2023-08-17T06:49:30;11.20;;;4.10;;
77733;SDS011;66902;41.720;44.796;2023-08-17T06:52:01;13.30;;;5.30;;
77733;SDS011;66902;41.720;44.796;2023-08-17T06:54:31;9.20;;;3.70;;
77733;SDS011;66902;41.720;44.796;2023-08-17T06:57:04;16.00;;;4.40;;
77733;SDS011;66902;41.720;44.796;2023-08-17T06:59:35;20.90;;;4.60;;
77733;SDS011;66902;41.720;44.796;2023-08-17T07:02:07;13.10;;;3.90;;
77733;SDS011;66902;41.720;44.796;2023-08-17T07:04:37;12.70;;;4.00;;
77733;SDS011;66902;41.720;44.796;2023-08-17T07:07:08;11.30;;;4.80;;
77733;SDS011;66902;41.720;44.796;2023-08-17T07:09:38;11.30;;;4.30;;
77733;SDS011;66902;41.720;44.796;2023-08-17T07:12:09;13.70;;;4.40;;
77733;SDS011;66902;41.720;44.796;2023-08-17T07:14:39;8.70;;;3.50;;
77733;SDS011;66902;41.720;44.796;2023-08-17T07:17:09;8.70;;;3.40;;
77733;SDS011;66902;41.720;44.796;2023-08-17T07:19:40;14.60;;;3.90;;
77733;SDS011;66902;41.720;44.796;2023-08-17T07:22:13;15.20;;;3.40;;
77733;SDS011;66902;41.720;44.796;2023-08-17T07:24:44;11.10;;;2.70;;
77733;SDS011;66902;41.720;44.796;2023-08-17T07:27:15;10.10;;;3.00;;
77733;SDS011;66902;41.720;44.796;2023-08-17T07:29:46;12.20;;;3.20;;
77733;SDS011;66902;41.720;44.796;2023-08-17T07:32:16;21.50;;;3.30;;
77733;SDS011;66902;41.720;44.796;2023-08-17T07:34:46;11.80;;;3.60;;
77733;SDS011;66902;41.720;44.796;2023-08-17T07:37:17;8.70;;;2.40;;
77733;SDS011;66902;41.720;44.796;2023-08-17T07:39:48;13.30;;;2.90;;
77733;SDS011;66902;41.720;44.796;2023-08-17T07:42:18;19.80;;;3.50;;
77733;SDS011;66902;41.720;44.796;2023-08-17T07:44:51;15.60;;;4.40;;
77733;SDS011;66902;41.720;44.796;2023-08-17T07:47:21;14.50;;;4.80;;
77733;SDS011;66902;41.720;44.796;2023-08-17T07:49:52;16.10;;;3.20;;
77733;SDS011;66902;41.720;44.796;2023-08-17T07:52:22;12.00;;;4.30;;
77733;SDS011;66902;41.720;44.796;2023-08-17T07:54:53;28.40;;;5.90;;
77733;SDS011;66902;41.720;44.796;2023-08-17T07:57:24;8.50;;;4.10;;
77733;SDS011;66902;41.720;44.796;2023-08-17T07:59:57;9.40;;;3.40;;
77733;SDS011;66902;41.720;44.796;2023-08-17T08:02:29;13.70;;;4.00;;
77733;SDS011;66902;41.720;44.796;2023-08-17T08:04:59;15.60;;;3.60;;
77733;SDS011;66902;41.720;44.796;2023-08-17T08:07:30;14.10;;;3.30;;
77733;SDS011;66902;41.720;44.796;2023-08-17T08:10:00;17.70;;;4.90;;
77733;SDS011;66902;41.720;44.796;2023-08-17T08:12:31;19.00;;;7.50;;
77733;SDS011;66902;41.720;44.796;2023-08-17T08:15:03;17.80;;;4.70;;
77733;SDS011;66902;41.720;44.796;2023-08-17T08:17:34;14.50;;;4.50;;
77733;SDS011;66902;41.720;44.796;2023-08-17T08:20:06;15.20;;;3.60;;
77733;SDS011;66902;41.720;44.796;2023-08-17T08:22:37;11.70;;;3.50;;
77733;SDS011;66902;41.720;44.796;2023-08-17T08:25:08;13.80;;;4.00;;
77733;SDS011;66902;41.720;44.796;2023-08-17T08:27:38;16.60;;;3.70;;
77733;SDS011;66902;41.720;44.796;2023-08-17T08:30:11;12.40;;;4.70;;
77733;SDS011;66902;41.720;44.796;2023-08-17T08:32:42;11.70;;;2.90;;
77733;SDS011;66902;41.720;44.796;2023-08-17T08:35:14;18.30;;;4.90;;
77733;SDS011;66902;41.720;44.796;2023-08-17T08:37:45;11.20;;;3.30;;
77733;SDS011;66902;41.720;44.796;2023-08-17T08:40:18;16.30;;;3.00;;
77733;SDS011;66902;41.720;44.796;2023-08-17T08:42:50;13.70;;;4.10;;
77733;SDS011;66902;41.720;44.796;2023-08-17T08:45:20;12.00;;;3.50;;
77733;SDS011;66902;41.720;44.796;2023-08-17T08:47:51;17.10;;;3.30;;
77733;SDS011;66902;41.720;44.796;2023-08-17T08:50:23;7.50;;;2.90;;
77733;SDS011;66902;41.720;44.796;2023-08-17T08:52:58;24.20;;;4.40;;
77733;SDS011;66902;41.720;44.796;2023-08-17T08:55:33;16.20;;;4.20;;
77733;SDS011;66902;41.720;44.796;2023-08-17T08:58:13;17.30;;;4.30;;
77733;SDS011;66902;41.720;44.796;2023-08-17T09:00:46;15.80;;;3.30;;
77733;SDS011;66902;41.720;44.796;2023-08-17T09:03:17;13.20;;;4.20;;
77733;SDS011;66902;41.720;44.796;2023-08-17T09:05:49;17.70;;;5.10;;
77733;SDS011;66902;41.720;44.796;2023-08-17T09:08:21;32.60;;;5.90;;
77733;SDS011;66902;41.720;44.796;2023-08-17T09:10:54;11.30;;;3.50;;
77733;SDS011;66902;41.720;44.796;2023-08-17T09:13:24;11.00;;;3.40;;
77733;SDS011;66902;41.720;44.796;2023-08-17T09:15:56;13.80;;;4.30;;
77733;SDS011;66902;41.720;44.796;2023-08-17T09:18:35;13.40;;;4.10;;
77733;SDS011;66902;41.720;44.796;2023-08-17T09:21:07;16.20;;;4.10;;
77733;SDS011;66902;41.720;44.796;2023-08-17T09:23:40;18.80;;;4.20;;
77733;SDS011;66902;41.720;44.796;2023-08-17T09:26:11;14.90;;;3.30;;
77733;SDS011;66902;41.720;44.796;2023-08-17T09:28:43;16.20;;;4.40;;
77733;SDS011;66902;41.720;44.796;2023-08-17T09:31:21;8.40;;;2.80;;
77733;SDS011;66902;41.720;44.796;2023-08-17T09:33:54;14.50;;;4.90;;
77733;SDS011;66902;41.720;44.796;2023-08-17T09:36:27;23.90;;;4.00;;
77733;SDS011;66902;41.720;44.796;2023-08-17T09:38:58;8.70;;;3.90;;
77733;SDS011;66902;41.720;44.796;2023-08-17T09:41:31;17.20;;;4.30;;
77733;SDS011;66902;41.720;44.796;2023-08-17T09:44:11;10.70;;;4.10;;
77733;SDS011;66902;41.720;44.796;2023-08-17T09:46:44;14.30;;;4.20;;
77733;SDS011;66902;41.720;44.796;2023-08-17T09:49:16;9.80;;;3.40;;
77733;SDS011;66902;41.720;44.796;2023-08-17T09:51:49;13.70;;;4.30;;
77733;SDS011;66902;41.720;44.796;2023-08-17T09:54:22;12.70;;;2.70;;
77733;SDS011;66902;41.720;44.796;2023-08-17T09:56:57;13.80;;;3.80;;
77733;SDS011;66902;41.720;44.796;2023-08-17T09:59:27;17.40;;;4.60;;
77733;SDS011;66902;41.720;44.796;2023-08-17T10:02:10;16.90;;;4.80;;
77733;SDS011;66902;41.720;44.796;2023-08-17T10:04:49;18.70;;;5.10;;
77733;SDS011;66902;41.720;44.796;2023-08-17T10:07:23;20.00;;;4.50;;
77733;SDS011;66902;41.720;44.796;2023-08-17T10:10:02;11.30;;;4.20;;
77733;SDS011;66902;41.720;44.796;2023-08-17T10:12:36;8.50;;;3.50;;
77733;SDS011;66902;41.720;44.796;2023-08-17T10:15:10;8.20;;;4.00;;
77733;SDS011;66902;41.720;44.796;2023-08-17T10:17:49;17.70;;;4.60;;
77733;SDS011;66902;41.720;44.796;2023-08-17T10:20:23;21.50;;;4.30;;
77733;SDS011;66902;41.720;44.796;2023-08-17T10:22:55;15.70;;;5.30;;
77733;SDS011;66902;41.720;44.796;2023-08-17T10:25:29;5.90;;;3.20;;
77733;SDS011;66902;41.720;44.796;2023-08-17T10:28:00;18.30;;;4.00;;
77733;SDS011;66902;41.720;44.796;2023-08-17T10:30:31;16.20;;;5.50;;
77733;SDS011;66902;41.720;44.796;2023-08-17T10:33:02;10.90;;;4.20;;
77733;SDS011;66902;41.720;44.796;2023-08-17T10:35:35;22.20;;;4.10;;
77733;SDS011;66902;41.720;44.796;2023-08-17T10:38:05;9.60;;;3.80;;
77733;SDS011;66902;41.720;44.796;2023-08-17T10:40:39;11.60;;;3.90;;
77733;SDS011;66902;41.720;44.796;2023-08-17T10:43:10;13.60;;;3.30;;
77733;SDS011;66902;41.720;44.796;2023-08-17T10:45:40;12.50;;;3.90;;
77733;SDS011;66902;41.720;44.796;2023-08-17T10:48:28;14.80;;;4.20;;
77733;SDS011;66902;41.720;44.796;2023-08-17T10:51:05;19.80;;;3.80;;
77733;SDS011;66902;41.720;44.796;2023-08-17T10:53:36;8.20;;;3.30;;
77733;SDS011;66902;41.720;44.796;2023-08-17T10:56:14;20.60;;;5.30;;
77733;SDS011;66902;41.720;44.796;2023-08-17T10:58:46;11.10;;;4.50;;
77733;SDS011;66902;41.720;44.796;2023-08-17T11:01:31;15.10;;;4.60;;
77733;SDS011;66902;41.720;44.796;2023-08-17T11:04:16;11.90;;;3.60;;
77733;SDS011;66902;41.720;44.796;2023-08-17T11:06:49;16.90;;;4.10;;
77733;SDS011;66902;41.720;44.796;2023-08-17T11:09:31;5.10;;;2.70;;
77733;SDS011;66902;41.720;44.796;2023-08-17T11:12:01;12.50;;;3.30;;
77733;SDS011;66902;41.720;44.796;2023-08-17T11:14:33;8.90;;;3.10;;
77733;SDS011;66902;41.720;44.796;2023-08-17T11:17:03;18.70;;;4.40;;
77733;SDS011;66902;41.720;44.796;2023-08-17T11:19:34;18.30;;;4.80;;
77733;SDS011;66902;41.720;44.796;2023-08-17T11:22:05;13.30;;;4.40;;
77733;SDS011;66902;41.720;44.796;2023-08-17T11:24:37;11.90;;;2.70;;
77733;SDS011;66902;41.720;44.796;2023-08-17T11:27:10;17.40;;;3.90;;
77733;SDS011;66902;41.720;44.796;2023-08-17T11:29:42;12.60;;;3.80;;
77733;SDS011;66902;41.720;44.796;2023-08-17T11:32:16;20.70;;;4.90;;
77733;SDS011;66902;41.720;44.796;2023-08-17T11:34:47;16.70;;;3.70;;
77733;SDS011;66902;41.720;44.796;2023-08-17T11:37:18;11.70;;;2.60;;
77733;SDS011;66902;41.720;44.796;2023-08-17T11:39:50;17.70;;;3.40;;
77733;SDS011;66902;41.720;44.796;2023-08-17T11:42:21;11.60;;;2.90;;
77733;SDS011;66902;41.720;44.796;2023-08-17T11:44:52;15.10;;;4.00;;
77733;SDS011;66902;41.720;44.796;2023-08-17T11:47:23;13.00;;;4.80;;
77733;SDS011;66902;41.720;44.796;2023-08-17T11:50:00;12.10;;;3.90;;
77733;SDS011;66902;41.720;44.796;2023-08-17T11:52:47;13.00;;;4.00;;
77733;SDS011;66902;41.720;44.796;2023-08-17T11:55:18;9.00;;;3.90;;
77733;SDS011;66902;41.720;44.796;2023-08-17T11:57:49;7.30;;;2.90;;
77733;SDS011;66902;41.720;44.796;2023-08-17T12:00:21;7.30;;;3.40;;
77733;SDS011;66902;41.720;44.796;2023-08-17T12:02:54;8.60;;;3.30;;
77733;SDS011;66902;41.720;44.796;2023-08-17T12:05:25;9.10;;;4.30;;
77733;SDS011;66902;41.720;44.796;2023-08-17T12:07:57;19.80;;;4.30;;
77733;SDS011;66902;41.720;44.796;2023-08-17T12:10:32;22.00;;;4.60;;
77733;SDS011;66902;41.720;44.796;2023-08-17T12:13:12;18.60;;;3.90;;
77733;SDS011;66902;41.720;44.796;2023-08-17T12:15:46;9.00;;;3.60;;
77733;SDS011;66902;41.720;44.796;2023-08-17T12:18:17;14.20;;;2.60;;
77733;SDS011;66902;41.720;44.796;2023-08-17T12:20:53;16.10;;;3.60;;
77733;SDS011;66902;41.720;44.796;2023-08-17T12:23:25;17.10;;;4.80;;
77733;SDS011;66902;41.720;44.796;2023-08-17T12:25:56;12.40;;;3.60;;
77733;SDS011;66902;41.720;44.796;2023-08-17T12:28:27;14.60;;;3.60;;
77733;SDS011;66902;41.720;44.796;2023-08-17T12:31:01;18.00;;;4.20;;
77733;SDS011;66902;41.720;44.796;2023-08-17T12:33:33;13.60;;;3.10;;
77733;SDS011;66902;41.720;44.796;2023-08-17T12:36:05;16.50;;;2.90;;
77733;SDS011;66902;41.720;44.796;2023-08-17T12:38:40;12.10;;;3.60;;
77733;SDS011;66902;41.720;44.796;2023-08-17T12:41:13;7.80;;;2.70;;
77733;SDS011;66902;41.720;44.796;2023-08-17T12:43:46;15.50;;;4.50;;
77733;SDS011;66902;41.720;44.796;2023-08-17T12:46:18;18.40;;;4.30;;
77733;SDS011;66902;41.720;44.796;2023-08-17T12:48:50;14.70;;;4.00;;
77733;SDS011;66902;41.720;44.796;2023-08-17T12:51:22;11.50;;;3.20;;
77733;SDS011;66902;41.720;44.796;2023-08-17T12:53:52;9.70;;;3.20;;
77733;SDS011;66902;41.720;44.796;2023-08-17T12:56:24;16.10;;;3.80;;
77733;SDS011;66902;41.720;44.796;2023-08-17T12:58:56;12.70;;;4.40;;
77733;SDS011;66902;41.720;44.796;2023-08-17T13:01:30;14.40;;;2.60;;
77733;SDS011;66902;41.720;44.796;2023-08-17T13:04:03;11.90;;;2.70;;
77733;SDS011;66902;41.720;44.796;2023-08-17T13:06:35;9.30;;;3.60;;
77733;SDS011;66902;41.720;44.796;2023-08-17T13:09:17;22.80;;;6.10;;
77733;SDS011;66902;41.720;44.796;2023-08-17T13:11:48;9.40;;;3.70;;
77733;SDS011;66902;41.720;44.796;2023-08-17T13:14:20;14.50;;;3.60;;
77733;SDS011;66902;41.720;44.796;2023-08-17T13:16:52;15.20;;;3.80;;
77733;SDS011;66902;41.720;44.796;2023-08-17T13:19:23;21.40;;;3.10;;
77733;SDS011;66902;41.720;44.796;2023-08-17T13:21:54;11.60;;;3.70;;
77733;SDS011;66902;41.720;44.796;2023-08-17T13:24:27;13.30;;;3.90;;
77733;SDS011;66902;41.720;44.796;2023-08-17T13:26:58;10.30;;;3.10;;
77733;SDS011;66902;41.720;44.796;2023-08-17T13:29:30;16.20;;;3.40;;
77733;SDS011;66902;41.720;44.796;2023-08-17T13:32:01;8.70;;;2.20;;
77733;SDS011;66902;41.720;44.796;2023-08-17T13:34:32;17.10;;;4.30;;
77733;SDS011;66902;41.720;44.796;2023-08-17T13:37:05;6.40;;;2.50;;
77733;SDS011;66902;41.720;44.796;2023-08-17T13:39:35;20.80;;;3.20;;
77733;SDS011;66902;41.720;44.796;2023-08-17T13:42:07;9.30;;;2.30;;
77733;SDS011;66902;41.720;44.796;2023-08-17T13:44:38;5.90;;;2.60;;
77733;SDS011;66902;41.720;44.796;2023-08-17T13:47:09;15.30;;;3.60;;
77733;SDS011;66902;41.720;44.796;2023-08-17T13:49:40;8.00;;;3.50;;
77733;SDS011;66902;41.720;44.796;2023-08-17T13:52:13;13.90;;;3.40;;
77733;SDS011;66902;41.720;44.796;2023-08-17T13:54:44;13.40;;;3.50;;
77733;SDS011;66902;41.720;44.796;2023-08-17T13:57:15;8.30;;;2.80;;
77733;SDS011;66902;41.720;44.796;2023-08-17T13:59:47;10.20;;;2.60;;
77733;SDS011;66902;41.720;44.796;2023-08-17T14:02:18;11.00;;;3.80;;
77733;SDS011;66902;41.720;44.796;2023-08-17T14:04:49;10.10;;;3.00;;
77733;SDS011;66902;41.720;44.796;2023-08-17T14:07:20;6.80;;;2.40;;
77733;SDS011;66902;41.720;44.796;2023-08-17T14:09:52;9.00;;;2.50;;
77733;SDS011;66902;41.720;44.796;2023-08-17T14:12:37;3.90;;;2.10;;
77733;SDS011;66902;41.720;44.796;2023-08-17T14:15:10;9.40;;;3.80;;
77733;SDS011;66902;41.720;44.796;2023-08-17T14:17:42;17.30;;;4.80;;
77733;SDS011;66902;41.720;44.796;2023-08-17T14:20:14;6.00;;;3.00;;
77733;SDS011;66902;41.720;44.796;2023-08-17T14:22:46;13.00;;;2.80;;
77733;SDS011;66902;41.720;44.796;2023-08-17T14:25:17;14.70;;;3.20;;
77733;SDS011;66902;41.720;44.796;2023-08-17T14:27:49;13.20;;;2.50;;
77733;SDS011;66902;41.720;44.796;2023-08-17T14:30:21;7.40;;;2.20;;
77733;SDS011;66902;41.720;44.796;2023-08-17T14:32:52;11.50;;;2.70;;
77733;SDS011;66902;41.720;44.796;2023-08-17T14:35:29;11.90;;;3.10;;
77733;SDS011;66902;41.720;44.796;2023-08-17T14:37:59;9.60;;;3.70;;
77733;SDS011;66902;41.720;44.796;2023-08-17T14:40:31;14.30;;;3.00;;
77733;SDS011;66902;41.720;44.796;2023-08-17T14:43:06;6.60;;;2.50;;
77733;SDS011;66902;41.720;44.796;2023-08-17T14:45:38;9.80;;;4.20;;
77733;SDS011;66902;41.720;44.796;2023-08-17T14:48:09;8.90;;;2.20;;
77733;SDS011;66902;41.720;44.796;2023-08-17T14:50:40;11.90;;;5.10;;
77733;SDS011;66902;41.720;44.796;2023-08-17T14:53:11;14.60;;;2.80;;